Phillips Army Air Field Aberdeen Proving Grounds(Aberdeen) US
ICAO: KAPG
IATA: APG
Category: Medium
Scheduled Services: No

Elevation: 57 ft
TransAlt. 18000 ft.

Airport Communications:
POTOMAC APP/DEP:126.75
ATIS:108.4
GND:121.9
TWR:126.15

KAPG Zoom In..

If you have problems with the map follow the link
https://www.worldairports.se/pages/airport.php?
ICAO=KAPG

Runways:

(A) RW 04 length 7997 ft width 200 ft
---- / hdg 38

(B) RW 08 length 4849 ft width 149 ft
---- / hdg 82

(C) RW 17 length 5004 ft width 149 ft
---- / hdg 171

(D) RW 22 length 7997 ft width 200 ft
---- / hdg 218

(E) RW 26 length 4849 ft width 149 ft
---- / hdg 262

(F) RW 35 length 5004 ft width 149 ft
---- / hdg 351

Location; KAPG
Day. 28 / Time. 13.58 Zulu
* Altimeter: 29.93
* Temperature: 04° c. 39.2°f.
* Wind from: 310° Speed 05 kn.
Dewpoint: -01° c.
Visibility: 9 Statute Miles.
Clouds: Overcast 3500 ft.

KAPG 281358Z 31005KT 9SM OVC035 04/M01 A2993 RMK AO2A SLP139 T00411015 $


Wind From 310°
Speed 05 kn.

 
 
jpsmedia worldairports.se 2020   terms of use